Penticton Airport
CYYF : now visible

Airfield :











YOU CAN JOIN US ON...

 
LOGIN :

Register | Disclaimer

   EN    FR    IT 

 









Legend :    VFR   Marginal VFR   IFR   Intensive IFR   Very Intensive IFR
Visi :
Ceiling :
>= 8 km
>= 3000ft
5 to 8 km
1000 to 3000 ft
1500m to 5 km
500 to 1000 ft
800 to 1500m
200 to 500 ft
< 800m
< 200 ft
Symbols :   Thunderstorms  Fog  Heavy snow  Heavy precipitations  Wind > 20 kt







- Airport Elevation : 1129 ft
- IATA code : YYF


CYYF - Penticton

CURRENT METAR :
  • 212100Z 15004KT 090V200 15SM FEW065 FEW250 22/10 A2997 RMK CF1CI2 CF TR SLP152 DENSITY ALT 2100FT

EXPIRED METARs :
  • 212000Z VRB02KT 15SM FEW065 FEW250 19/10 A3000 RMK CF1CI2 CF TR SLP162 DENSITY ALT 1800FT
  • 211900Z 20004KT 140V220 15SM SCT250 18/09 A3003 RMK CI3 SLP173 DENSITY ALT 1600FT

TAF TAF CYYF
Valid from the 21 at 19:00 until the 22 at 07:00 UTC


211838Z 2119/2207 VRB03KT P6SM SCT230
BECMG 2122/2124 19008KT RMK NXT FCST BY 220100Z
No reported NOTAMs for that airfield.



MET'MAP, your aeronautical weather chart ! - Copyright ORBIFLY December 2007 - Disclaimer

ORBIFLY MET'MAP TEAM :

Programming & Development : Alexandra Zaïnal
Concept & Development : Baudouin d'Aumeries
Co-Development & Prog : Marc-Olivier Méhu
Technical & hardware support : Manuel Goepfert

Contact : metmap@orbifly.com




SOURCES & CREDITS :

   NOAA       Earth
Advisory